createdAt,value
2023-05-14T00:01:20.570Z,51.15
2023-05-14T00:03:47.565Z,51.19
2023-05-14T00:06:15.219Z,51.54
2023-05-14T00:08:42.154Z,51.32
2023-05-14T00:11:12.030Z,51.12
2023-05-14T00:13:38.923Z,52.14
2023-05-14T00:16:06.030Z,52.02
2023-05-14T00:18:33.375Z,52.30
2023-05-14T00:21:00.331Z,52.54
2023-05-14T00:23:27.133Z,53.47
2023-05-14T00:25:53.978Z,53.35
2023-05-14T00:28:21.148Z,52.82
2023-05-14T00:30:48.681Z,52.83
2023-05-14T00:33:16.115Z,53.74
2023-05-14T00:35:43.426Z,53.57
2023-05-14T00:38:16.936Z,53.24
2023-05-14T00:40:46.002Z,53.42
2023-05-14T00:43:12.978Z,54.01
2023-05-14T00:45:39.842Z,54.71
2023-05-14T00:48:07.337Z,54.85
2023-05-14T00:50:34.753Z,54.16
2023-05-14T00:53:01.659Z,54.57
2023-05-14T00:55:30.965Z,56.15
2023-05-14T00:57:58.182Z,55.95
2023-05-14T01:00:25.277Z,54.77
2023-05-14T01:02:52.359Z,54.09
2023-05-14T01:05:19.391Z,54.14
2023-05-14T01:08:03.053Z,54.14
2023-05-14T01:10:39.035Z,54.25
2023-05-14T01:13:22.673Z,54.40
2023-05-14T01:15:49.758Z,54.67
2023-05-14T01:18:19.413Z,55.66
2023-05-14T01:20:46.586Z,54.65
2023-05-14T01:23:13.533Z,55.95
2023-05-14T01:25:41.136Z,56.02
2023-05-14T01:28:26.674Z,56.37
2023-05-14T01:31:08.631Z,56.28
2023-05-14T01:33:37.126Z,57.06
2023-05-14T01:36:04.775Z,56.87
2023-05-14T01:38:34.156Z,57.41
2023-05-14T01:41:02.195Z,57.36
2023-05-14T01:43:30.092Z,57.59
2023-05-14T01:45:57.024Z,57.71
2023-05-14T01:48:25.261Z,57.58
2023-05-14T01:50:52.511Z,58.01
2023-05-14T01:53:19.338Z,58.45
2023-05-14T01:55:46.258Z,57.61
2023-05-14T01:58:13.124Z,57.28
2023-05-14T02:00:40.015Z,57.17
2023-05-14T02:03:06.861Z,57.19
2023-05-14T02:05:34.202Z,57.69
2023-05-14T02:08:01.181Z,58.01
2023-05-14T02:10:28.326Z,58.30
2023-05-14T02:12:56.417Z,58.75
2023-05-14T02:15:23.241Z,59.15
2023-05-14T02:17:50.260Z,58.60
2023-05-14T02:20:17.223Z,58.57
2023-05-14T02:22:46.169Z,58.34
2023-05-14T02:25:13.165Z,57.34
2023-05-14T02:27:40.281Z,57.68
2023-05-14T02:30:07.971Z,57.86
2023-05-14T02:32:34.940Z,57.84
2023-05-14T02:35:02.066Z,57.70
2023-05-14T02:37:29.031Z,57.69
2023-05-14T02:39:55.853Z,57.53
2023-05-14T02:42:22.778Z,57.62
2023-05-14T02:44:49.901Z,57.63
2023-05-14T02:47:16.824Z,57.46
2023-05-14T02:49:43.701Z,57.33
2023-05-14T02:52:10.511Z,57.61
2023-05-14T02:54:37.349Z,57.27
2023-05-14T02:57:04.288Z,57.19
2023-05-14T02:59:31.736Z,57.59
2023-05-14T03:01:59.249Z,58.22
2023-05-14T03:04:26.636Z,58.95
2023-05-14T03:06:53.497Z,58.35
2023-05-14T03:09:20.333Z,58.17
2023-05-14T03:11:47.422Z,56.92
2023-05-14T03:14:14.275Z,59.17
2023-05-14T03:16:42.378Z,59.60
2023-05-14T03:19:10.019Z,60.03
2023-05-14T03:21:37.196Z,60.72
2023-05-14T03:24:04.208Z,59.63
2023-05-14T03:26:31.087Z,59.18
2023-05-14T03:28:58.019Z,61.09
2023-05-14T03:31:24.964Z,61.67
2023-05-14T03:33:52.186Z,61.42
2023-05-14T03:36:19.067Z,60.62
2023-05-14T03:38:47.790Z,60.43
2023-05-14T03:41:15.382Z,59.60
2023-05-14T03:43:42.698Z,59.05
2023-05-14T03:46:09.615Z,58.72
2023-05-14T03:48:36.852Z,58.56
2023-05-14T03:51:05.032Z,58.64
2023-05-14T03:53:31.852Z,58.26
2023-05-14T03:55:58.682Z,58.44
2023-05-14T03:58:26.083Z,58.90
2023-05-14T04:00:53.741Z,59.44
2023-05-14T04:03:20.970Z,59.62
2023-05-14T04:05:47.853Z,59.72
2023-05-14T04:08:14.638Z,58.90
2023-05-14T04:10:43.023Z,57.85
2023-05-14T04:13:09.814Z,57.37
2023-05-14T04:15:39.469Z,56.20
2023-05-14T04:18:06.473Z,55.87
2023-05-14T04:20:33.460Z,55.29
2023-05-14T04:23:00.323Z,54.65
2023-05-14T04:25:27.352Z,53.86
2023-05-14T04:27:54.243Z,54.14
2023-05-14T04:30:21.436Z,54.70
2023-05-14T04:32:48.656Z,54.33
2023-05-14T04:35:15.696Z,53.27
2023-05-14T04:37:42.552Z,53.07
2023-05-14T04:40:12.738Z,52.61
2023-05-14T04:42:39.548Z,52.91
2023-05-14T04:45:06.946Z,51.71
2023-05-14T04:47:35.090Z,52.64
2023-05-14T04:50:02.581Z,51.61
2023-05-14T04:52:29.444Z,52.17
2023-05-14T04:54:57.015Z,51.15
2023-05-14T04:57:23.856Z,51.21
2023-05-14T04:59:50.767Z,51.32
2023-05-14T05:02:17.681Z,51.39
2023-05-14T05:04:47.240Z,50.18
2023-05-14T05:07:14.675Z,51.10
2023-05-14T05:09:43.123Z,49.75
2023-05-14T05:12:10.135Z,50.29
2023-05-14T05:14:36.967Z,49.12
2023-05-14T05:17:04.006Z,50.02
2023-05-14T05:19:42.404Z,49.68
2023-05-14T05:22:10.550Z,49.85
2023-05-14T05:24:37.405Z,49.27
2023-05-14T05:27:05.580Z,49.33
2023-05-14T05:29:32.436Z,47.12
2023-05-14T05:31:59.485Z,49.05
2023-05-14T05:34:26.554Z,47.67
2023-05-14T05:36:53.320Z,48.29
2023-05-14T05:39:20.111Z,49.04
2023-05-14T05:41:47.018Z,47.92
2023-05-14T05:44:13.789Z,48.97
2023-05-14T05:46:40.677Z,47.51
2023-05-14T05:49:07.717Z,46.82
2023-05-14T05:51:34.615Z,47.16
2023-05-14T05:54:01.386Z,48.26
2023-05-14T05:56:28.560Z,47.95
2023-05-14T05:58:55.389Z,47.11
2023-05-14T06:01:22.629Z,46.80
2023-05-14T06:03:49.450Z,45.49
2023-05-14T06:06:16.240Z,46.48
2023-05-14T06:08:42.997Z,46.17
2023-05-14T06:11:09.831Z,45.82
2023-05-14T06:13:36.632Z,45.19
2023-05-14T06:16:03.743Z,43.64
2023-05-14T06:18:30.816Z,43.74
2023-05-14T06:21:00.194Z,43.99
2023-05-14T06:23:27.192Z,42.58
2023-05-14T06:25:54.260Z,43.53
2023-05-14T06:28:21.145Z,43.97
2023-05-14T06:30:50.428Z,43.33
2023-05-14T06:33:19.340Z,43.96
2023-05-14T06:35:47.495Z,43.37
2023-05-14T06:38:14.394Z,43.40
2023-05-14T06:40:41.232Z,44.15
2023-05-14T06:43:08.090Z,43.53
2023-05-14T06:45:35.182Z,43.35
2023-05-14T06:48:02.070Z,42.08
2023-05-14T06:50:28.947Z,41.93
2023-05-14T06:52:55.770Z,43.58
2023-05-14T06:55:22.750Z,41.93
2023-05-14T06:57:50.710Z,41.69
2023-05-14T07:00:17.940Z,41.68
2023-05-14T07:02:44.841Z,41.81
2023-05-14T07:05:11.802Z,40.99
2023-05-14T07:07:38.717Z,40.56
2023-05-14T07:10:06.580Z,40.98
2023-05-14T07:12:33.422Z,40.32
2023-05-14T07:15:00.196Z,39.56
2023-05-14T07:17:27.251Z,41.33
2023-05-14T07:19:56.021Z,40.70
2023-05-14T07:22:22.850Z,40.93
2023-05-14T07:24:50.297Z,41.67
2023-05-14T07:27:17.392Z,41.47
2023-05-14T07:29:44.603Z,41.40
2023-05-14T07:32:12.807Z,41.58
2023-05-14T07:34:41.608Z,41.84
2023-05-14T07:37:08.805Z,40.86
2023-05-14T07:39:36.065Z,39.81
2023-05-14T07:42:02.976Z,40.01
2023-05-14T07:44:29.815Z,38.47
2023-05-14T07:46:56.742Z,38.06
2023-05-14T07:49:23.562Z,38.20
2023-05-14T07:51:50.409Z,37.72
2023-05-14T07:54:17.323Z,37.89
2023-05-14T07:56:44.589Z,36.59
2023-05-14T07:59:11.405Z,37.73
2023-05-14T08:01:39.456Z,37.41
2023-05-14T08:04:06.537Z,37.30
2023-05-14T08:06:34.118Z,37.00
2023-05-14T08:09:00.989Z,37.93
2023-05-14T08:11:27.880Z,37.91
2023-05-14T08:13:54.771Z,37.87
2023-05-14T08:16:22.460Z,38.48
2023-05-14T08:18:49.499Z,39.10
2023-05-14T08:21:16.345Z,38.42
2023-05-14T08:23:43.479Z,38.74
2023-05-14T08:26:10.380Z,37.73
2023-05-14T08:28:37.218Z,38.13
2023-05-14T08:31:04.237Z,39.30
2023-05-14T08:33:31.119Z,38.30
2023-05-14T08:36:00.612Z,38.85
2023-05-14T08:38:27.508Z,38.13
2023-05-14T08:40:58.496Z,39.05
2023-05-14T08:44:04.499Z,39.28
2023-05-14T08:46:32.541Z,39.10
2023-05-14T08:49:11.392Z,38.62
2023-05-14T08:51:38.793Z,37.24
2023-05-14T08:54:05.985Z,37.71
2023-05-14T08:56:33.679Z,38.64
2023-05-14T08:59:00.925Z,38.28
2023-05-14T09:01:29.080Z,38.20
2023-05-14T09:03:56.797Z,37.47
2023-05-14T09:06:24.478Z,36.88
2023-05-14T09:08:51.729Z,36.58
2023-05-14T09:11:18.617Z,35.12
2023-05-14T09:13:45.410Z,35.36
2023-05-14T09:16:12.293Z,36.28
2023-05-14T09:18:45.007Z,36.37
2023-05-14T09:21:17.804Z,35.78
2023-05-14T09:23:45.212Z,35.99
2023-05-14T09:26:12.676Z,37.55
2023-05-14T09:28:43.763Z,37.61
2023-05-14T09:31:10.718Z,38.96
2023-05-14T09:33:37.638Z,36.76
2023-05-14T09:36:04.629Z,37.06
2023-05-14T09:38:32.905Z,38.44
2023-05-14T09:41:00.853Z,37.57
2023-05-14T09:43:27.770Z,38.06
2023-05-14T09:45:54.609Z,38.25
2023-05-14T09:48:22.553Z,37.98
2023-05-14T09:50:49.732Z,38.29
2023-05-14T09:53:17.900Z,35.89
2023-05-14T09:55:45.755Z,36.55
2023-05-14T09:58:16.034Z,37.08
2023-05-14T10:00:47.970Z,36.27
2023-05-14T10:03:17.927Z,37.38
2023-05-14T10:05:49.657Z,37.29
2023-05-14T10:08:25.687Z,37.27
2023-05-14T10:10:54.600Z,39.16
2023-05-14T10:13:28.161Z,38.11
2023-05-14T10:16:05.484Z,39.79
2023-05-14T10:18:41.406Z,39.83
2023-05-14T10:21:11.756Z,40.05
2023-05-14T10:23:40.558Z,39.38
2023-05-14T10:26:08.964Z,40.49
2023-05-14T10:28:36.616Z,40.91
2023-05-14T10:31:03.868Z,38.31
2023-05-14T10:33:30.959Z,38.48
2023-05-14T10:36:05.967Z,38.19
2023-05-14T10:38:35.726Z,38.36
2023-05-14T10:41:10.087Z,37.35
2023-05-14T10:43:38.701Z,37.53
2023-05-14T10:46:06.786Z,38.69
2023-05-14T10:48:44.589Z,38.39
2023-05-14T10:51:12.283Z,38.15
2023-05-14T10:53:41.516Z,38.87
2023-05-14T10:56:10.216Z,40.36
2023-05-14T10:58:38.606Z,37.62
2023-05-14T11:01:10.972Z,39.57
2023-05-14T11:03:46.416Z,37.56
2023-05-14T11:06:16.469Z,37.06
2023-05-14T11:08:44.679Z,37.67
2023-05-14T11:11:12.607Z,35.58
2023-05-14T11:13:39.594Z,36.50
2023-05-14T11:18:41.913Z,38.01
2023-05-14T11:21:09.019Z,39.41
2023-05-14T11:23:36.332Z,37.17
2023-05-14T11:26:03.390Z,35.17
2023-05-14T11:28:30.486Z,36.24
2023-05-14T11:30:57.373Z,38.40
2023-05-14T11:33:24.136Z,39.44
2023-05-14T11:35:52.130Z,39.37
2023-05-14T11:38:20.568Z,39.11
2023-05-14T11:40:57.262Z,38.25
2023-05-14T11:43:24.449Z,37.51
2023-05-14T11:45:52.681Z,37.84
2023-05-14T11:48:24.068Z,37.45
2023-05-14T11:50:52.288Z,37.36
2023-05-14T11:53:20.177Z,36.93
2023-05-14T11:55:47.829Z,36.41
2023-05-14T11:58:15.951Z,35.90
2023-05-14T12:00:45.634Z,36.35
2023-05-14T12:03:12.764Z,36.50
2023-05-14T12:05:40.232Z,37.55
2023-05-14T12:08:26.281Z,36.97
2023-05-14T12:10:54.426Z,37.54
2023-05-14T12:13:21.449Z,36.40
2023-05-14T12:15:59.394Z,36.46
2023-05-14T12:18:28.491Z,35.96
2023-05-14T12:20:55.909Z,37.24
2023-05-14T12:23:32.725Z,35.73
2023-05-14T12:26:06.273Z,35.87
2023-05-14T12:28:35.996Z,36.62
2023-05-14T12:31:04.736Z,36.23
2023-05-14T12:33:31.586Z,36.95
2023-05-14T12:36:10.045Z,37.13
2023-05-14T12:38:47.160Z,36.98
2023-05-14T12:41:14.031Z,36.94
2023-05-14T12:43:44.372Z,37.61
2023-05-14T12:46:11.317Z,36.59
2023-05-14T12:48:38.112Z,37.12
2023-05-14T12:51:05.020Z,38.21
2023-05-14T12:53:31.815Z,37.90
2023-05-14T12:55:58.744Z,37.47
2023-05-14T12:58:25.742Z,37.54
2023-05-14T13:00:52.563Z,37.08
2023-05-14T13:03:19.583Z,37.92
2023-05-14T13:05:46.538Z,38.05
2023-05-14T13:08:17.775Z,38.28
2023-05-14T13:10:44.979Z,38.45
2023-05-14T13:13:11.964Z,38.51
2023-05-14T13:15:38.800Z,39.10
2023-05-14T13:18:05.925Z,38.99
2023-05-14T13:20:33.863Z,39.09
2023-05-14T13:23:00.834Z,40.01
2023-05-14T13:25:27.782Z,38.93
2023-05-14T13:27:55.361Z,39.14
2023-05-14T13:30:22.298Z,39.22
2023-05-14T13:32:49.957Z,39.59
2023-05-14T13:35:17.137Z,39.52
2023-05-14T13:37:44.440Z,40.63
2023-05-14T13:40:11.767Z,40.06
2023-05-14T13:42:39.953Z,39.57
2023-05-14T13:45:07.486Z,40.10
2023-05-14T13:47:34.401Z,40.39
2023-05-14T13:50:01.291Z,39.86
2023-05-14T13:52:28.162Z,39.62
2023-05-14T13:54:54.957Z,40.06
2023-05-14T13:57:22.109Z,40.20
2023-05-14T13:59:49.337Z,40.57
2023-05-14T14:02:16.299Z,39.85
2023-05-14T14:04:43.363Z,40.57
2023-05-14T14:07:10.230Z,40.17
2023-05-14T14:09:37.132Z,40.94
2023-05-14T14:12:04.705Z,41.68
2023-05-14T14:14:31.998Z,42.54
2023-05-14T14:16:58.798Z,42.78
2023-05-14T14:19:25.749Z,42.96
2023-05-14T14:21:53.221Z,42.97
2023-05-14T14:24:20.396Z,42.64
2023-05-14T14:26:47.219Z,42.61
2023-05-14T14:29:14.456Z,42.52
2023-05-14T14:31:41.432Z,43.20
2023-05-14T14:34:08.425Z,43.25
2023-05-14T14:36:35.201Z,44.01
2023-05-14T14:39:02.062Z,44.46
2023-05-14T14:41:28.962Z,45.46
2023-05-14T14:43:55.803Z,46.14
2023-05-14T14:46:22.701Z,47.55
2023-05-14T14:48:49.527Z,47.67
2023-05-14T14:51:16.381Z,47.91
2023-05-14T14:53:43.157Z,48.63
2023-05-14T14:56:10.062Z,48.71
2023-05-14T14:58:37.170Z,48.64
2023-05-14T15:01:04.130Z,49.03
2023-05-14T15:03:31.535Z,49.07
2023-05-14T15:05:58.662Z,49.96
2023-05-14T15:08:30.219Z,49.96
2023-05-14T15:10:57.200Z,50.67
2023-05-14T15:13:24.814Z,52.04
2023-05-14T15:15:52.591Z,51.65
2023-05-14T15:18:19.553Z,51.72
2023-05-14T15:20:46.474Z,53.24
2023-05-14T15:23:13.299Z,53.05
2023-05-14T15:25:40.201Z,52.74
2023-05-14T15:28:07.796Z,52.50
2023-05-14T15:30:34.820Z,52.89
2023-05-14T15:33:01.938Z,52.81
2023-05-14T15:35:28.970Z,52.78
2023-05-14T15:37:59.522Z,52.96
2023-05-14T15:40:27.859Z,53.21
2023-05-14T15:42:54.878Z,53.59
2023-05-14T15:45:21.901Z,53.22
2023-05-14T15:47:48.824Z,53.88
2023-05-14T15:50:15.848Z,53.39
2023-05-14T15:52:42.742Z,53.54
2023-05-14T15:55:10.232Z,53.36
2023-05-14T15:57:37.162Z,52.57
2023-05-14T16:00:11.183Z,53.36
2023-05-14T16:02:39.550Z,54.08
2023-05-14T16:05:07.722Z,53.71
2023-05-14T16:07:34.735Z,53.50
2023-05-14T16:10:01.540Z,53.84
2023-05-14T16:12:28.530Z,53.24
2023-05-14T16:14:57.078Z,53.79
2023-05-14T16:17:23.939Z,53.47
2023-05-14T16:19:51.144Z,53.62
2023-05-14T16:22:18.410Z,53.18
2023-05-14T16:24:45.426Z,52.28
2023-05-14T16:27:12.311Z,52.62
2023-05-14T16:29:39.274Z,54.37
2023-05-14T16:32:06.270Z,54.79
2023-05-14T16:34:33.137Z,56.39
2023-05-14T16:37:00.021Z,55.74
2023-05-14T16:39:26.826Z,55.22
2023-05-14T16:41:53.646Z,54.45
2023-05-14T16:44:20.424Z,53.54
2023-05-14T16:46:48.177Z,54.04
2023-05-14T16:49:15.206Z,54.14
2023-05-14T16:51:43.948Z,54.24
2023-05-14T16:54:11.093Z,53.25
2023-05-14T16:56:37.948Z,54.00
2023-05-14T16:59:04.785Z,53.36
2023-05-14T17:01:32.258Z,53.31
2023-05-14T17:03:59.147Z,53.39
2023-05-14T17:06:26.074Z,54.12
2023-05-14T17:08:53.019Z,55.09
2023-05-14T17:11:21.181Z,54.55
2023-05-14T17:13:48.145Z,54.49
2023-05-14T17:16:15.083Z,54.73
2023-05-14T17:18:42.166Z,55.84
2023-05-14T17:21:09.089Z,55.10
2023-05-14T17:23:35.880Z,55.82
2023-05-14T17:26:02.935Z,55.59
2023-05-14T17:28:30.126Z,56.62
2023-05-14T17:30:57.605Z,56.30
2023-05-14T17:33:24.550Z,56.10
2023-05-14T17:35:51.447Z,55.60
2023-05-14T17:38:18.263Z,57.46
2023-05-14T17:40:45.155Z,56.18
2023-05-14T17:43:12.284Z,56.03
2023-05-14T17:45:50.200Z,56.93
2023-05-14T17:48:20.528Z,56.84
2023-05-14T17:50:47.306Z,56.95
2023-05-14T17:53:14.357Z,56.82
2023-05-14T17:55:43.851Z,56.80
2023-05-14T17:58:13.480Z,56.73
2023-05-14T18:00:40.588Z,56.04
2023-05-14T18:03:10.680Z,55.82
2023-05-14T18:05:37.649Z,58.45
2023-05-14T18:08:04.624Z,58.41
2023-05-14T18:10:31.474Z,59.80
2023-05-14T18:12:58.311Z,60.64
2023-05-14T18:15:28.309Z,60.75
2023-05-14T18:17:55.189Z,60.48
2023-05-14T18:20:22.107Z,61.11
2023-05-14T18:22:50.692Z,60.25
2023-05-14T18:25:17.656Z,60.10
2023-05-14T18:27:45.406Z,59.39
2023-05-14T18:30:14.710Z,60.25
2023-05-14T18:32:44.372Z,60.49
2023-05-14T18:35:13.242Z,60.08
2023-05-14T18:37:40.166Z,60.69
2023-05-14T18:40:07.889Z,61.49
2023-05-14T18:42:35.689Z,61.01
2023-05-14T18:45:03.302Z,61.14
2023-05-14T18:47:30.376Z,61.37
2023-05-14T18:49:59.581Z,59.81
2023-05-14T18:52:26.757Z,60.52
2023-05-14T18:54:54.962Z,59.83
2023-05-14T18:57:22.476Z,60.44
2023-05-14T18:59:49.401Z,61.32
2023-05-14T19:02:16.306Z,61.98
2023-05-14T19:04:51.633Z,61.83
2023-05-14T19:07:21.033Z,62.08
2023-05-14T19:09:48.335Z,62.40
2023-05-14T19:12:15.244Z,61.84
2023-05-14T19:14:42.207Z,63.07
2023-05-14T19:17:09.088Z,62.32
2023-05-14T19:19:35.997Z,63.26
2023-05-14T19:22:03.139Z,63.24
2023-05-14T19:24:30.330Z,63.11
2023-05-14T19:26:57.363Z,63.79
2023-05-14T19:29:24.958Z,63.17
2023-05-14T19:31:51.899Z,61.87
2023-05-14T19:34:18.762Z,63.32
2023-05-14T19:36:45.688Z,62.59
2023-05-14T19:39:12.560Z,63.65
2023-05-14T19:41:39.372Z,63.57
2023-05-14T19:44:06.184Z,63.03
2023-05-14T19:46:33.172Z,63.51
2023-05-14T19:49:00.039Z,62.56
2023-05-14T19:51:26.897Z,62.85
2023-05-14T19:53:53.820Z,63.42
2023-05-14T19:56:21.687Z,61.63
2023-05-14T19:58:48.625Z,61.25
2023-05-14T20:01:15.519Z,62.65
2023-05-14T20:03:42.431Z,62.27
2023-05-14T20:06:09.278Z,62.02
2023-05-14T20:08:36.113Z,60.92
2023-05-14T20:11:03.383Z,61.87
2023-05-14T20:13:33.241Z,62.88
2023-05-14T20:16:00.326Z,61.35
2023-05-14T20:18:27.539Z,61.34
2023-05-14T20:20:54.807Z,62.21
2023-05-14T20:23:21.864Z,63.84
2023-05-14T20:25:48.824Z,63.83
2023-05-14T20:28:15.645Z,65.02
2023-05-14T20:30:42.561Z,64.25
2023-05-14T20:33:09.548Z,64.68
2023-05-14T20:35:36.567Z,65.00
2023-05-14T20:38:03.830Z,65.13
2023-05-14T20:40:32.832Z,64.72
2023-05-14T20:42:59.822Z,64.44
2023-05-14T20:45:27.205Z,65.44
2023-05-14T20:47:54.451Z,64.76
2023-05-14T20:50:22.600Z,65.87
2023-05-14T20:52:49.619Z,68.23
2023-05-14T20:55:16.587Z,66.75
2023-05-14T20:57:43.716Z,67.91
2023-05-14T21:00:11.386Z,67.56
2023-05-14T21:02:38.418Z,67.87
2023-05-14T21:05:05.932Z,66.57
2023-05-14T21:07:32.824Z,69.16
2023-05-14T21:09:59.661Z,67.35
2023-05-14T21:12:26.460Z,69.48
2023-05-14T21:14:53.223Z,68.17
2023-05-14T21:17:20.252Z,67.28
2023-05-14T21:19:47.149Z,67.82
2023-05-14T21:22:14.217Z,69.39
2023-05-14T21:24:41.370Z,69.76
2023-05-14T21:27:08.238Z,70.43
2023-05-14T21:29:35.102Z,69.56
2023-05-14T21:32:02.117Z,70.00
2023-05-14T21:34:29.864Z,70.60
2023-05-14T21:36:58.689Z,69.29
2023-05-14T21:39:25.579Z,69.05
2023-05-14T21:41:52.384Z,68.79
2023-05-14T21:44:19.257Z,69.50
2023-05-14T21:46:47.381Z,71.12
2023-05-14T21:49:14.212Z,70.76
2023-05-14T21:51:41.013Z,70.03
2023-05-14T21:54:07.849Z,70.69
2023-05-14T21:56:35.940Z,70.15
2023-05-14T21:59:02.989Z,70.20
2023-05-14T22:01:29.807Z,71.72
2023-05-14T22:03:58.030Z,72.42
2023-05-14T22:06:25.222Z,71.86
2023-05-14T22:08:51.990Z,70.71
2023-05-14T22:11:18.877Z,70.72
2023-05-14T22:13:45.712Z,70.29
2023-05-14T22:16:13.822Z,70.23
2023-05-14T22:18:41.638Z,71.86
2023-05-14T22:21:08.624Z,70.84
2023-05-14T22:23:35.515Z,70.78
2023-05-14T22:26:02.360Z,70.08
2023-05-14T22:28:29.193Z,70.39
2023-05-14T22:30:56.654Z,70.96
2023-05-14T22:33:23.620Z,70.34
2023-05-14T22:35:50.691Z,71.99
2023-05-14T22:38:17.646Z,70.59
2023-05-14T22:40:44.447Z,71.90
2023-05-14T22:43:11.211Z,72.26
2023-05-14T22:45:38.048Z,71.78
2023-05-14T22:48:04.937Z,72.07
2023-05-14T22:50:31.923Z,72.04
2023-05-14T22:52:58.769Z,72.22
2023-05-14T22:55:26.168Z,72.29
2023-05-14T22:57:53.226Z,72.41
2023-05-14T23:00:20.042Z,72.19
2023-05-14T23:02:46.958Z,72.66
2023-05-14T23:05:13.933Z,73.31
2023-05-14T23:07:40.758Z,72.52
2023-05-14T23:10:08.063Z,73.52
2023-05-14T23:12:34.921Z,73.24
2023-05-14T23:15:01.749Z,72.85
2023-05-14T23:17:28.904Z,73.85
2023-05-14T23:19:55.910Z,73.71
2023-05-14T23:22:22.787Z,72.64
2023-05-14T23:24:49.586Z,73.05
2023-05-14T23:27:16.593Z,71.08
2023-05-14T23:29:43.442Z,71.11
2023-05-14T23:32:10.515Z,70.91
2023-05-14T23:34:37.497Z,70.77
2023-05-14T23:37:04.808Z,73.57
2023-05-14T23:39:31.643Z,74.56
2023-05-14T23:41:58.471Z,75.29
2023-05-14T23:44:25.472Z,75.23
2023-05-14T23:46:52.414Z,74.53
2023-05-14T23:49:19.513Z,75.35
2023-05-14T23:51:46.297Z,74.37
2023-05-14T23:54:13.122Z,74.83
2023-05-14T23:56:40.363Z,73.80
2023-05-14T23:59:07.460Z,73.28
